Jack Barstow Information

FAA: IKW - ICAO: KIKW

Jack Barstow (Airport) Location

State Michigan
County Midland
City Midland
Jack Barstow (Airport) is 3 miles northwest of Midland, MI.
Latitude 43-39-46.5000N
Longitude 084-15-40.7000W
Elevation 634ft

Jack Barstow METARs

METAR KIKW 190135Z AUTO 19008G14KT 10SM OVC090 00/M05 A2970 RMK AO2 T00031055
Altimeter 29.70"
Temperature 0.3°C (32.5°F)
Wind 190° at 8KT with gusts to 14KT
Clouds overcast at 9,000ft
Visibility 10.0mi
Time observed: 2022-01-19T01:35:00Z

Jack Barstow (Airport) Details

Status Operational
Activation September 1948
Ownership Public
Usage Public
Chart DETROIT
ATC on-site No
Beacon schedule sunset-sunrise
Beacon color clear green

Jack Barstow (Airport) Contacts

Owner CITY OF MIDLAND
Owner address 333 W ELLSWORTH ST, MIDLAND, MI 48640
Owner phone 989-837-3300
Manager STEPHEN L. BLONDEAU
Manager address 417 CHERRY CREEK RD, MARQUETTE, MI 49855
Manager phone 906-249-1532

Jack Barstow Radio Frequencies

Jack Barstow (Airport) Radio Frequencies

UNICOM 122.8
Common traffic advisory frequency (CTAF) 122.8